sensor_id;sensor_type;location;lat;lon;timestamp;P1;durP1;ratioP1;P2;durP2;ratioP2
11498;SDS011;5806;48.748;9.278;2023-05-07T00:00:24;3.43;;;3.10;;
11498;SDS011;5806;48.748;9.278;2023-05-07T00:02:52;5.17;;;3.60;;
11498;SDS011;5806;48.748;9.278;2023-05-07T00:05:20;5.80;;;3.67;;
11498;SDS011;5806;48.748;9.278;2023-05-07T00:07:49;4.23;;;3.57;;
11498;SDS011;5806;48.748;9.278;2023-05-07T00:10:18;4.03;;;3.63;;
11498;SDS011;5806;48.748;9.278;2023-05-07T00:12:46;14.40;;;3.80;;
11498;SDS011;5806;48.748;9.278;2023-05-07T00:15:13;3.47;;;3.17;;
11498;SDS011;5806;48.748;9.278;2023-05-07T00:17:41;5.53;;;3.47;;
11498;SDS011;5806;48.748;9.278;2023-05-07T00:20:08;7.87;;;3.60;;
11498;SDS011;5806;48.748;9.278;2023-05-07T00:22:36;7.63;;;3.77;;
11498;SDS011;5806;48.748;9.278;2023-05-07T00:25:04;6.73;;;3.57;;
11498;SDS011;5806;48.748;9.278;2023-05-07T00:27:32;5.27;;;3.67;;
11498;SDS011;5806;48.748;9.278;2023-05-07T00:29:59;6.87;;;3.57;;
11498;SDS011;5806;48.748;9.278;2023-05-07T00:32:27;7.03;;;3.80;;
11498;SDS011;5806;48.748;9.278;2023-05-07T00:34:54;4.97;;;3.70;;
11498;SDS011;5806;48.748;9.278;2023-05-07T00:37:22;5.87;;;3.77;;
11498;SDS011;5806;48.748;9.278;2023-05-07T00:39:49;6.47;;;3.83;;
11498;SDS011;5806;48.748;9.278;2023-05-07T00:42:17;4.20;;;3.80;;
11498;SDS011;5806;48.748;9.278;2023-05-07T00:44:45;5.03;;;3.30;;
11498;SDS011;5806;48.748;9.278;2023-05-07T00:47:12;5.43;;;3.40;;
11498;SDS011;5806;48.748;9.278;2023-05-07T00:49:44;5.40;;;3.83;;
11498;SDS011;5806;48.748;9.278;2023-05-07T00:52:17;4.57;;;3.50;;
11498;SDS011;5806;48.748;9.278;2023-05-07T00:54:42;3.60;;;3.30;;
11498;SDS011;5806;48.748;9.278;2023-05-07T00:57:11;5.37;;;3.50;;
11498;SDS011;5806;48.748;9.278;2023-05-07T00:59:38;6.13;;;3.63;;
11498;SDS011;5806;48.748;9.278;2023-05-07T01:02:06;5.07;;;3.40;;
11498;SDS011;5806;48.748;9.278;2023-05-07T01:04:34;4.07;;;3.33;;
11498;SDS011;5806;48.748;9.278;2023-05-07T01:07:02;6.17;;;3.40;;
11498;SDS011;5806;48.748;9.278;2023-05-07T01:09:30;6.53;;;3.47;;
11498;SDS011;5806;48.748;9.278;2023-05-07T01:11:58;5.57;;;3.80;;
11498;SDS011;5806;48.748;9.278;2023-05-07T01:14:26;4.37;;;3.57;;
11498;SDS011;5806;48.748;9.278;2023-05-07T01:16:55;4.57;;;3.13;;
11498;SDS011;5806;48.748;9.278;2023-05-07T01:19:22;5.63;;;3.40;;
11498;SDS011;5806;48.748;9.278;2023-05-07T01:21:50;3.57;;;3.27;;
11498;SDS011;5806;48.748;9.278;2023-05-07T01:24:19;5.07;;;3.30;;
11498;SDS011;5806;48.748;9.278;2023-05-07T01:26:47;3.57;;;2.90;;
11498;SDS011;5806;48.748;9.278;2023-05-07T01:29:15;9.37;;;4.60;;
11498;SDS011;5806;48.748;9.278;2023-05-07T01:31:42;4.83;;;3.37;;
11498;SDS011;5806;48.748;9.278;2023-05-07T01:34:10;5.80;;;3.30;;
11498;SDS011;5806;48.748;9.278;2023-05-07T01:36:39;5.53;;;3.23;;
11498;SDS011;5806;48.748;9.278;2023-05-07T01:39:09;4.17;;;3.03;;
11498;SDS011;5806;48.748;9.278;2023-05-07T01:41:38;5.37;;;3.03;;
11498;SDS011;5806;48.748;9.278;2023-05-07T01:44:06;4.13;;;2.80;;
11498;SDS011;5806;48.748;9.278;2023-05-07T01:46:36;4.43;;;2.87;;
11498;SDS011;5806;48.748;9.278;2023-05-07T01:49:03;3.90;;;2.93;;
11498;SDS011;5806;48.748;9.278;2023-05-07T01:51:31;4.60;;;3.03;;
11498;SDS011;5806;48.748;9.278;2023-05-07T01:53:59;3.17;;;2.27;;
11498;SDS011;5806;48.748;9.278;2023-05-07T01:56:27;10.53;;;3.03;;
11498;SDS011;5806;48.748;9.278;2023-05-07T01:58:55;4.37;;;2.73;;
11498;SDS011;5806;48.748;9.278;2023-05-07T02:01:22;3.63;;;2.83;;
11498;SDS011;5806;48.748;9.278;2023-05-07T02:03:50;3.60;;;2.70;;
11498;SDS011;5806;48.748;9.278;2023-05-07T02:06:17;5.77;;;2.90;;
11498;SDS011;5806;48.748;9.278;2023-05-07T02:08:45;2.80;;;2.60;;
11498;SDS011;5806;48.748;9.278;2023-05-07T02:11:13;6.10;;;2.83;;
11498;SDS011;5806;48.748;9.278;2023-05-07T02:13:41;3.67;;;2.93;;
11498;SDS011;5806;48.748;9.278;2023-05-07T02:16:08;6.40;;;2.60;;
11498;SDS011;5806;48.748;9.278;2023-05-07T02:18:36;5.07;;;2.50;;
11498;SDS011;5806;48.748;9.278;2023-05-07T02:21:03;2.93;;;2.57;;
11498;SDS011;5806;48.748;9.278;2023-05-07T02:23:31;8.73;;;2.90;;
11498;SDS011;5806;48.748;9.278;2023-05-07T02:25:58;7.63;;;2.83;;
11498;SDS011;5806;48.748;9.278;2023-05-07T02:28:26;4.03;;;2.70;;
11498;SDS011;5806;48.748;9.278;2023-05-07T02:30:54;4.83;;;2.80;;
11498;SDS011;5806;48.748;9.278;2023-05-07T02:33:23;6.17;;;2.90;;
11498;SDS011;5806;48.748;9.278;2023-05-07T02:35:50;4.63;;;2.33;;
11498;SDS011;5806;48.748;9.278;2023-05-07T02:38:18;3.90;;;2.60;;
11498;SDS011;5806;48.748;9.278;2023-05-07T02:40:45;4.93;;;2.57;;
11498;SDS011;5806;48.748;9.278;2023-05-07T02:43:13;4.53;;;2.40;;
11498;SDS011;5806;48.748;9.278;2023-05-07T02:45:40;2.87;;;2.10;;
11498;SDS011;5806;48.748;9.278;2023-05-07T02:48:08;3.83;;;2.83;;
11498;SDS011;5806;48.748;9.278;2023-05-07T02:50:36;3.00;;;2.70;;
11498;SDS011;5806;48.748;9.278;2023-05-07T02:53:03;3.93;;;2.57;;
11498;SDS011;5806;48.748;9.278;2023-05-07T02:55:31;5.90;;;2.50;;
11498;SDS011;5806;48.748;9.278;2023-05-07T02:57:58;3.77;;;2.40;;
11498;SDS011;5806;48.748;9.278;2023-05-07T03:00:31;3.90;;;2.20;;
11498;SDS011;5806;48.748;9.278;2023-05-07T03:03:05;4.57;;;2.40;;
11498;SDS011;5806;48.748;9.278;2023-05-07T03:05:33;3.90;;;2.60;;
11498;SDS011;5806;48.748;9.278;2023-05-07T03:08:01;3.33;;;2.23;;
11498;SDS011;5806;48.748;9.278;2023-05-07T03:10:29;7.00;;;3.10;;
11498;SDS011;5806;48.748;9.278;2023-05-07T03:12:57;4.37;;;2.43;;
11498;SDS011;5806;48.748;9.278;2023-05-07T03:15:24;2.63;;;2.43;;
11498;SDS011;5806;48.748;9.278;2023-05-07T03:17:52;2.57;;;2.37;;
11498;SDS011;5806;48.748;9.278;2023-05-07T03:20:19;3.93;;;2.37;;
11498;SDS011;5806;48.748;9.278;2023-05-07T03:22:47;4.67;;;2.30;;
11498;SDS011;5806;48.748;9.278;2023-05-07T03:25:14;3.07;;;2.20;;
11498;SDS011;5806;48.748;9.278;2023-05-07T03:27:42;2.20;;;2.00;;
11498;SDS011;5806;48.748;9.278;2023-05-07T03:30:10;6.47;;;2.70;;
11498;SDS011;5806;48.748;9.278;2023-05-07T03:32:38;5.00;;;2.60;;
11498;SDS011;5806;48.748;9.278;2023-05-07T03:35:06;3.90;;;2.50;;
11498;SDS011;5806;48.748;9.278;2023-05-07T03:37:33;3.67;;;2.70;;
11498;SDS011;5806;48.748;9.278;2023-05-07T03:40:01;7.13;;;2.77;;
11498;SDS011;5806;48.748;9.278;2023-05-07T03:42:29;3.97;;;2.93;;
11498;SDS011;5806;48.748;9.278;2023-05-07T03:44:57;6.33;;;2.67;;
11498;SDS011;5806;48.748;9.278;2023-05-07T03:47:24;2.90;;;2.40;;
11498;SDS011;5806;48.748;9.278;2023-05-07T03:49:52;5.07;;;2.60;;
11498;SDS011;5806;48.748;9.278;2023-05-07T03:52:20;2.67;;;2.47;;
11498;SDS011;5806;48.748;9.278;2023-05-07T03:54:49;5.43;;;2.43;;
11498;SDS011;5806;48.748;9.278;2023-05-07T03:57:17;2.97;;;2.30;;
11498;SDS011;5806;48.748;9.278;2023-05-07T03:59:44;6.37;;;2.90;;
11498;SDS011;5806;48.748;9.278;2023-05-07T04:02:12;5.63;;;2.60;;
11498;SDS011;5806;48.748;9.278;2023-05-07T04:04:40;4.40;;;2.33;;
11498;SDS011;5806;48.748;9.278;2023-05-07T04:07:07;9.40;;;2.70;;
11498;SDS011;5806;48.748;9.278;2023-05-07T04:09:35;3.63;;;2.73;;
11498;SDS011;5806;48.748;9.278;2023-05-07T04:12:03;4.07;;;2.70;;
11498;SDS011;5806;48.748;9.278;2023-05-07T04:14:31;3.77;;;2.63;;
11498;SDS011;5806;48.748;9.278;2023-05-07T04:17:00;2.53;;;2.17;;
11498;SDS011;5806;48.748;9.278;2023-05-07T04:19:28;5.97;;;2.57;;
11498;SDS011;5806;48.748;9.278;2023-05-07T04:21:55;2.47;;;2.20;;
11498;SDS011;5806;48.748;9.278;2023-05-07T04:24:24;3.70;;;2.20;;
11498;SDS011;5806;48.748;9.278;2023-05-07T04:26:52;4.57;;;2.70;;
11498;SDS011;5806;48.748;9.278;2023-05-07T04:29:21;5.97;;;2.77;;
11498;SDS011;5806;48.748;9.278;2023-05-07T04:31:49;3.67;;;2.53;;
11498;SDS011;5806;48.748;9.278;2023-05-07T04:34:18;2.80;;;2.30;;
11498;SDS011;5806;48.748;9.278;2023-05-07T04:36:46;10.10;;;2.80;;
11498;SDS011;5806;48.748;9.278;2023-05-07T04:39:15;4.20;;;2.70;;
11498;SDS011;5806;48.748;9.278;2023-05-07T04:41:43;6.30;;;2.60;;
11498;SDS011;5806;48.748;9.278;2023-05-07T04:44:10;4.57;;;2.57;;
11498;SDS011;5806;48.748;9.278;2023-05-07T04:46:38;4.33;;;2.80;;
11498;SDS011;5806;48.748;9.278;2023-05-07T04:49:05;6.57;;;3.07;;
11498;SDS011;5806;48.748;9.278;2023-05-07T04:51:35;3.90;;;2.57;;
11498;SDS011;5806;48.748;9.278;2023-05-07T04:54:03;3.57;;;2.43;;
11498;SDS011;5806;48.748;9.278;2023-05-07T04:56:31;3.30;;;2.57;;
11498;SDS011;5806;48.748;9.278;2023-05-07T04:58:58;2.80;;;2.40;;
11498;SDS011;5806;48.748;9.278;2023-05-07T05:01:26;4.23;;;2.83;;
11498;SDS011;5806;48.748;9.278;2023-05-07T05:03:53;3.17;;;2.80;;
11498;SDS011;5806;48.748;9.278;2023-05-07T05:06:21;3.37;;;2.63;;
11498;SDS011;5806;48.748;9.278;2023-05-07T05:08:49;4.00;;;2.70;;
11498;SDS011;5806;48.748;9.278;2023-05-07T05:11:16;4.37;;;2.37;;
11498;SDS011;5806;48.748;9.278;2023-05-07T05:13:44;3.53;;;2.80;;
11498;SDS011;5806;48.748;9.278;2023-05-07T05:16:13;7.33;;;3.00;;
11498;SDS011;5806;48.748;9.278;2023-05-07T05:18:41;3.53;;;2.67;;
11498;SDS011;5806;48.748;9.278;2023-05-07T05:21:10;3.53;;;2.70;;
11498;SDS011;5806;48.748;9.278;2023-05-07T05:23:37;5.27;;;3.00;;
11498;SDS011;5806;48.748;9.278;2023-05-07T05:26:07;4.57;;;3.10;;
11498;SDS011;5806;48.748;9.278;2023-05-07T05:28:36;7.20;;;2.83;;
11498;SDS011;5806;48.748;9.278;2023-05-07T05:31:04;4.93;;;2.90;;
11498;SDS011;5806;48.748;9.278;2023-05-07T05:33:32;6.50;;;2.80;;
11498;SDS011;5806;48.748;9.278;2023-05-07T05:35:59;3.83;;;3.13;;
11498;SDS011;5806;48.748;9.278;2023-05-07T05:38:27;2.90;;;2.70;;
11498;SDS011;5806;48.748;9.278;2023-05-07T05:40:54;5.83;;;3.27;;
11498;SDS011;5806;48.748;9.278;2023-05-07T05:43:22;3.67;;;3.07;;
11498;SDS011;5806;48.748;9.278;2023-05-07T05:45:50;4.20;;;2.90;;
11498;SDS011;5806;48.748;9.278;2023-05-07T05:48:17;5.00;;;3.13;;
11498;SDS011;5806;48.748;9.278;2023-05-07T05:50:45;4.77;;;3.33;;
11498;SDS011;5806;48.748;9.278;2023-05-07T05:53:12;5.03;;;3.50;;
11498;SDS011;5806;48.748;9.278;2023-05-07T05:55:40;3.93;;;3.20;;
11498;SDS011;5806;48.748;9.278;2023-05-07T05:58:09;3.40;;;3.10;;
11498;SDS011;5806;48.748;9.278;2023-05-07T06:00:37;4.67;;;3.27;;
11498;SDS011;5806;48.748;9.278;2023-05-07T06:03:05;4.83;;;3.13;;
11498;SDS011;5806;48.748;9.278;2023-05-07T06:05:32;4.33;;;3.17;;
11498;SDS011;5806;48.748;9.278;2023-05-07T06:08:00;4.17;;;3.10;;
11498;SDS011;5806;48.748;9.278;2023-05-07T06:10:27;4.43;;;3.53;;
11498;SDS011;5806;48.748;9.278;2023-05-07T06:12:55;4.57;;;3.47;;
11498;SDS011;5806;48.748;9.278;2023-05-07T06:15:23;4.97;;;3.20;;
11498;SDS011;5806;48.748;9.278;2023-05-07T06:17:50;5.83;;;3.50;;
11498;SDS011;5806;48.748;9.278;2023-05-07T06:20:18;3.67;;;3.07;;
11498;SDS011;5806;48.748;9.278;2023-05-07T06:22:45;5.80;;;3.40;;
11498;SDS011;5806;48.748;9.278;2023-05-07T06:25:12;4.47;;;3.17;;
11498;SDS011;5806;48.748;9.278;2023-05-07T06:27:40;4.43;;;3.17;;
11498;SDS011;5806;48.748;9.278;2023-05-07T06:30:08;3.50;;;3.20;;
11498;SDS011;5806;48.748;9.278;2023-05-07T06:32:36;3.37;;;3.07;;
11498;SDS011;5806;48.748;9.278;2023-05-07T06:35:03;4.40;;;3.40;;
11498;SDS011;5806;48.748;9.278;2023-05-07T06:37:31;3.50;;;3.20;;
11498;SDS011;5806;48.748;9.278;2023-05-07T06:39:58;6.30;;;3.13;;
11498;SDS011;5806;48.748;9.278;2023-05-07T06:42:26;4.00;;;3.23;;
11498;SDS011;5806;48.748;9.278;2023-05-07T06:44:53;7.73;;;3.70;;
11498;SDS011;5806;48.748;9.278;2023-05-07T06:47:21;3.60;;;3.20;;
11498;SDS011;5806;48.748;9.278;2023-05-07T06:49:48;5.40;;;3.47;;
11498;SDS011;5806;48.748;9.278;2023-05-07T06:52:16;5.20;;;3.10;;
11498;SDS011;5806;48.748;9.278;2023-05-07T06:54:43;5.23;;;3.53;;
11498;SDS011;5806;48.748;9.278;2023-05-07T06:57:11;3.27;;;2.97;;
11498;SDS011;5806;48.748;9.278;2023-05-07T06:59:38;4.00;;;3.30;;
11498;SDS011;5806;48.748;9.278;2023-05-07T07:02:05;4.00;;;3.67;;
11498;SDS011;5806;48.748;9.278;2023-05-07T07:04:34;6.80;;;3.50;;
11498;SDS011;5806;48.748;9.278;2023-05-07T07:07:01;4.40;;;3.27;;
11498;SDS011;5806;48.748;9.278;2023-05-07T07:09:28;3.27;;;3.00;;
11498;SDS011;5806;48.748;9.278;2023-05-07T07:11:56;4.67;;;3.67;;
11498;SDS011;5806;48.748;9.278;2023-05-07T07:14:23;8.07;;;4.10;;
11498;SDS011;5806;48.748;9.278;2023-05-07T07:16:51;5.37;;;4.20;;
11498;SDS011;5806;48.748;9.278;2023-05-07T07:19:18;5.73;;;4.10;;
11498;SDS011;5806;48.748;9.278;2023-05-07T07:21:46;4.43;;;3.43;;
11498;SDS011;5806;48.748;9.278;2023-05-07T07:24:13;3.90;;;3.60;;
11498;SDS011;5806;48.748;9.278;2023-05-07T07:26:45;4.13;;;3.57;;
11498;SDS011;5806;48.748;9.278;2023-05-07T07:29:13;4.73;;;3.33;;
11498;SDS011;5806;48.748;9.278;2023-05-07T07:31:40;5.00;;;2.97;;
11498;SDS011;5806;48.748;9.278;2023-05-07T07:34:08;6.43;;;2.47;;
11498;SDS011;5806;48.748;9.278;2023-05-07T07:36:35;3.60;;;2.90;;
11498;SDS011;5806;48.748;9.278;2023-05-07T07:39:03;2.87;;;2.67;;
11498;SDS011;5806;48.748;9.278;2023-05-07T07:41:30;3.50;;;2.50;;
11498;SDS011;5806;48.748;9.278;2023-05-07T07:43:57;2.97;;;2.07;;
11498;SDS011;5806;48.748;9.278;2023-05-07T07:46:25;4.90;;;2.77;;
11498;SDS011;5806;48.748;9.278;2023-05-07T07:48:52;3.17;;;2.87;;
11498;SDS011;5806;48.748;9.278;2023-05-07T07:51:20;2.70;;;2.27;;
11498;SDS011;5806;48.748;9.278;2023-05-07T07:53:47;4.00;;;2.93;;
11498;SDS011;5806;48.748;9.278;2023-05-07T07:56:15;7.93;;;2.87;;
11498;SDS011;5806;48.748;9.278;2023-05-07T07:58:42;2.53;;;2.30;;
11498;SDS011;5806;48.748;9.278;2023-05-07T08:01:10;4.17;;;2.40;;
11498;SDS011;5806;48.748;9.278;2023-05-07T08:03:38;4.83;;;2.40;;
11498;SDS011;5806;48.748;9.278;2023-05-07T08:06:06;2.70;;;1.70;;
11498;SDS011;5806;48.748;9.278;2023-05-07T08:08:33;5.50;;;2.50;;
11498;SDS011;5806;48.748;9.278;2023-05-07T08:11:01;2.40;;;1.90;;
11498;SDS011;5806;48.748;9.278;2023-05-07T08:13:28;3.90;;;1.90;;
11498;SDS011;5806;48.748;9.278;2023-05-07T08:15:56;2.60;;;2.00;;
11498;SDS011;5806;48.748;9.278;2023-05-07T08:18:23;2.97;;;2.00;;
11498;SDS011;5806;48.748;9.278;2023-05-07T08:20:51;2.33;;;2.13;;
11498;SDS011;5806;48.748;9.278;2023-05-07T08:23:19;2.83;;;2.03;;
11498;SDS011;5806;48.748;9.278;2023-05-07T08:25:46;3.27;;;1.50;;
11498;SDS011;5806;48.748;9.278;2023-05-07T08:28:14;1.60;;;1.50;;
11498;SDS011;5806;48.748;9.278;2023-05-07T08:30:41;2.37;;;1.70;;
11498;SDS011;5806;48.748;9.278;2023-05-07T08:33:09;1.57;;;1.47;;
11498;SDS011;5806;48.748;9.278;2023-05-07T08:35:36;3.47;;;1.73;;
11498;SDS011;5806;48.748;9.278;2023-05-07T08:38:04;3.10;;;1.80;;
11498;SDS011;5806;48.748;9.278;2023-05-07T08:40:32;2.17;;;1.77;;
11498;SDS011;5806;48.748;9.278;2023-05-07T08:43:02;3.00;;;1.77;;
11498;SDS011;5806;48.748;9.278;2023-05-07T08:45:31;2.83;;;1.30;;
11498;SDS011;5806;48.748;9.278;2023-05-07T08:48:05;2.83;;;1.70;;
11498;SDS011;5806;48.748;9.278;2023-05-07T08:50:39;1.70;;;1.60;;
11498;SDS011;5806;48.748;9.278;2023-05-07T08:53:03;2.80;;;1.80;;
11498;SDS011;5806;48.748;9.278;2023-05-07T08:55:32;2.43;;;1.67;;
11498;SDS011;5806;48.748;9.278;2023-05-07T08:57:59;4.27;;;1.67;;
11498;SDS011;5806;48.748;9.278;2023-05-07T09:00:27;4.40;;;1.50;;
11498;SDS011;5806;48.748;9.278;2023-05-07T09:02:54;4.03;;;2.00;;
11498;SDS011;5806;48.748;9.278;2023-05-07T09:05:22;4.53;;;1.87;;
11498;SDS011;5806;48.748;9.278;2023-05-07T09:07:49;2.00;;;1.70;;
11498;SDS011;5806;48.748;9.278;2023-05-07T09:10:17;2.10;;;1.80;;
11498;SDS011;5806;48.748;9.278;2023-05-07T09:12:46;4.10;;;1.70;;
11498;SDS011;5806;48.748;9.278;2023-05-07T09:15:14;2.63;;;1.60;;
11498;SDS011;5806;48.748;9.278;2023-05-07T09:17:42;2.63;;;1.63;;
11498;SDS011;5806;48.748;9.278;2023-05-07T09:20:10;2.90;;;1.70;;
11498;SDS011;5806;48.748;9.278;2023-05-07T09:22:38;3.13;;;1.67;;
11498;SDS011;5806;48.748;9.278;2023-05-07T09:25:06;3.23;;;1.73;;
11498;SDS011;5806;48.748;9.278;2023-05-07T09:27:34;2.07;;;1.50;;
11498;SDS011;5806;48.748;9.278;2023-05-07T09:30:05;1.73;;;1.50;;
11498;SDS011;5806;48.748;9.278;2023-05-07T09:32:36;1.80;;;1.30;;
11498;SDS011;5806;48.748;9.278;2023-05-07T09:35:04;2.30;;;1.37;;
11498;SDS011;5806;48.748;9.278;2023-05-07T09:37:32;5.67;;;1.70;;
11498;SDS011;5806;48.748;9.278;2023-05-07T09:40:00;3.07;;;1.90;;
11498;SDS011;5806;48.748;9.278;2023-05-07T09:42:28;1.67;;;1.57;;
11498;SDS011;5806;48.748;9.278;2023-05-07T09:44:56;3.23;;;1.70;;
11498;SDS011;5806;48.748;9.278;2023-05-07T09:47:25;4.27;;;1.67;;
11498;SDS011;5806;48.748;9.278;2023-05-07T09:49:56;3.17;;;1.60;;
11498;SDS011;5806;48.748;9.278;2023-05-07T09:52:25;3.20;;;1.50;;
11498;SDS011;5806;48.748;9.278;2023-05-07T09:54:56;2.73;;;1.57;;
11498;SDS011;5806;48.748;9.278;2023-05-07T09:57:26;1.93;;;1.17;;
11498;SDS011;5806;48.748;9.278;2023-05-07T09:59:55;2.10;;;1.57;;
11498;SDS011;5806;48.748;9.278;2023-05-07T10:02:25;4.60;;;1.60;;
11498;SDS011;5806;48.748;9.278;2023-05-07T10:04:54;2.63;;;1.70;;
11498;SDS011;5806;48.748;9.278;2023-05-07T10:07:22;2.37;;;1.67;;
11498;SDS011;5806;48.748;9.278;2023-05-07T10:09:51;1.50;;;1.37;;
11498;SDS011;5806;48.748;9.278;2023-05-07T10:12:19;3.03;;;1.70;;
11498;SDS011;5806;48.748;9.278;2023-05-07T10:14:47;1.80;;;1.40;;
11498;SDS011;5806;48.748;9.278;2023-05-07T10:17:16;3.97;;;1.90;;
11498;SDS011;5806;48.748;9.278;2023-05-07T10:19:44;2.20;;;1.40;;
11498;SDS011;5806;48.748;9.278;2023-05-07T10:22:12;1.90;;;1.70;;
11498;SDS011;5806;48.748;9.278;2023-05-07T10:24:42;2.37;;;1.60;;
11498;SDS011;5806;48.748;9.278;2023-05-07T10:27:13;1.90;;;1.47;;
11498;SDS011;5806;48.748;9.278;2023-05-07T10:35:03;2.47;;;1.20;;
11498;SDS011;5806;48.748;9.278;2023-05-07T10:37:33;2.53;;;1.60;;
11498;SDS011;5806;48.748;9.278;2023-05-07T10:40:01;2.70;;;1.30;;
11498;SDS011;5806;48.748;9.278;2023-05-07T10:42:28;3.47;;;1.33;;
11498;SDS011;5806;48.748;9.278;2023-05-07T10:44:56;3.77;;;1.27;;
11498;SDS011;5806;48.748;9.278;2023-05-07T10:47:23;2.13;;;1.30;;
11498;SDS011;5806;48.748;9.278;2023-05-07T10:52:33;3.53;;;1.47;;
11498;SDS011;5806;48.748;9.278;2023-05-07T10:57:47;2.73;;;1.30;;
11498;SDS011;5806;48.748;9.278;2023-05-07T11:05:32;2.93;;;1.23;;
11498;SDS011;5806;48.748;9.278;2023-05-07T11:08:01;1.87;;;1.30;;
11498;SDS011;5806;48.748;9.278;2023-05-07T11:13:41;2.57;;;1.10;;
11498;SDS011;5806;48.748;9.278;2023-05-07T11:16:15;2.27;;;1.30;;
11498;SDS011;5806;48.748;9.278;2023-05-07T11:18:50;3.23;;;1.40;;
11498;SDS011;5806;48.748;9.278;2023-05-07T11:21:38;2.93;;;1.40;;
11498;SDS011;5806;48.748;9.278;2023-05-07T11:24:09;3.13;;;1.90;;
11498;SDS011;5806;48.748;9.278;2023-05-07T11:26:47;2.73;;;1.33;;
11498;SDS011;5806;48.748;9.278;2023-05-07T11:29:20;2.80;;;1.70;;
11498;SDS011;5806;48.748;9.278;2023-05-07T11:31:48;3.17;;;1.57;;
11498;SDS011;5806;48.748;9.278;2023-05-07T11:34:26;2.30;;;1.27;;
11498;SDS011;5806;48.748;9.278;2023-05-07T11:36:49;2.40;;;1.20;;
11498;SDS011;5806;48.748;9.278;2023-05-07T11:39:28;3.43;;;1.90;;
11498;SDS011;5806;48.748;9.278;2023-05-07T11:42:01;4.53;;;1.67;;
11498;SDS011;5806;48.748;9.278;2023-05-07T11:44:42;1.50;;;1.40;;
11498;SDS011;5806;48.748;9.278;2023-05-07T11:47:11;2.90;;;1.40;;
11498;SDS011;5806;48.748;9.278;2023-05-07T11:49:50;2.50;;;1.67;;
11498;SDS011;5806;48.748;9.278;2023-05-07T11:52:20;1.53;;;1.40;;
11498;SDS011;5806;48.748;9.278;2023-05-07T11:54:48;1.50;;;1.40;;
11498;SDS011;5806;48.748;9.278;2023-05-07T11:57:20;3.30;;;1.50;;
11498;SDS011;5806;48.748;9.278;2023-05-07T11:59:55;1.63;;;1.30;;
11498;SDS011;5806;48.748;9.278;2023-05-07T12:02:24;2.97;;;1.30;;
11498;SDS011;5806;48.748;9.278;2023-05-07T12:04:52;2.17;;;1.57;;
11498;SDS011;5806;48.748;9.278;2023-05-07T12:07:20;1.73;;;1.60;;
11498;SDS011;5806;48.748;9.278;2023-05-07T12:09:49;1.80;;;1.50;;
11498;SDS011;5806;48.748;9.278;2023-05-07T12:12:17;3.03;;;1.50;;
11498;SDS011;5806;48.748;9.278;2023-05-07T12:14:45;3.60;;;1.87;;
11498;SDS011;5806;48.748;9.278;2023-05-07T12:17:13;3.23;;;1.80;;
11498;SDS011;5806;48.748;9.278;2023-05-07T12:19:43;2.00;;;1.40;;
11498;SDS011;5806;48.748;9.278;2023-05-07T12:22:11;1.93;;;1.40;;
11498;SDS011;5806;48.748;9.278;2023-05-07T12:24:46;2.07;;;1.40;;
11498;SDS011;5806;48.748;9.278;2023-05-07T12:27:15;2.20;;;1.40;;
11498;SDS011;5806;48.748;9.278;2023-05-07T12:29:44;3.20;;;1.50;;
11498;SDS011;5806;48.748;9.278;2023-05-07T12:32:15;3.43;;;1.80;;
11498;SDS011;5806;48.748;9.278;2023-05-07T12:34:45;2.83;;;1.40;;
11498;SDS011;5806;48.748;9.278;2023-05-07T12:37:13;2.07;;;1.40;;
11498;SDS011;5806;48.748;9.278;2023-05-07T12:40:02;1.87;;;1.43;;
11498;SDS011;5806;48.748;9.278;2023-05-07T12:42:35;2.57;;;1.40;;
11498;SDS011;5806;48.748;9.278;2023-05-07T12:45:10;2.80;;;1.37;;
11498;SDS011;5806;48.748;9.278;2023-05-07T12:47:38;1.73;;;1.50;;
11498;SDS011;5806;48.748;9.278;2023-05-07T12:50:07;3.87;;;1.50;;
11498;SDS011;5806;48.748;9.278;2023-05-07T12:52:35;2.80;;;1.70;;
11498;SDS011;5806;48.748;9.278;2023-05-07T12:55:12;1.50;;;1.10;;
11498;SDS011;5806;48.748;9.278;2023-05-07T12:57:38;2.23;;;1.60;;
11498;SDS011;5806;48.748;9.278;2023-05-07T13:00:07;3.37;;;1.40;;
11498;SDS011;5806;48.748;9.278;2023-05-07T13:02:37;2.07;;;1.20;;
11498;SDS011;5806;48.748;9.278;2023-05-07T13:05:09;2.47;;;1.60;;
11498;SDS011;5806;48.748;9.278;2023-05-07T13:07:37;2.13;;;1.30;;
11498;SDS011;5806;48.748;9.278;2023-05-07T13:10:06;2.20;;;1.40;;
11498;SDS011;5806;48.748;9.278;2023-05-07T13:12:34;1.57;;;1.20;;
11498;SDS011;5806;48.748;9.278;2023-05-07T13:15:02;1.73;;;1.40;;
11498;SDS011;5806;48.748;9.278;2023-05-07T13:17:29;1.67;;;1.33;;
11498;SDS011;5806;48.748;9.278;2023-05-07T13:19:57;1.87;;;1.20;;
11498;SDS011;5806;48.748;9.278;2023-05-07T13:22:24;2.90;;;1.33;;
11498;SDS011;5806;48.748;9.278;2023-05-07T13:24:51;1.87;;;1.33;;
11498;SDS011;5806;48.748;9.278;2023-05-07T13:27:19;3.60;;;1.60;;
11498;SDS011;5806;48.748;9.278;2023-05-07T13:29:47;1.73;;;1.37;;
11498;SDS011;5806;48.748;9.278;2023-05-07T13:32:14;3.13;;;1.40;;
11498;SDS011;5806;48.748;9.278;2023-05-07T13:34:41;3.73;;;1.57;;
11498;SDS011;5806;48.748;9.278;2023-05-07T13:37:09;1.93;;;1.50;;
11498;SDS011;5806;48.748;9.278;2023-05-07T13:39:37;2.93;;;1.50;;
11498;SDS011;5806;48.748;9.278;2023-05-07T13:42:04;1.97;;;1.50;;
11498;SDS011;5806;48.748;9.278;2023-05-07T13:44:32;2.03;;;1.50;;
11498;SDS011;5806;48.748;9.278;2023-05-07T13:46:59;1.87;;;1.43;;
11498;SDS011;5806;48.748;9.278;2023-05-07T13:49:27;1.93;;;1.60;;
11498;SDS011;5806;48.748;9.278;2023-05-07T13:51:55;4.20;;;1.73;;
11498;SDS011;5806;48.748;9.278;2023-05-07T13:54:22;1.70;;;1.60;;
11498;SDS011;5806;48.748;9.278;2023-05-07T13:56:50;5.67;;;1.70;;
11498;SDS011;5806;48.748;9.278;2023-05-07T13:59:17;2.30;;;2.10;;
11498;SDS011;5806;48.748;9.278;2023-05-07T14:01:45;2.30;;;1.50;;
11498;SDS011;5806;48.748;9.278;2023-05-07T14:04:12;2.27;;;1.67;;
11498;SDS011;5806;48.748;9.278;2023-05-07T14:06:40;2.70;;;1.77;;
11498;SDS011;5806;48.748;9.278;2023-05-07T14:09:07;1.70;;;1.60;;
11498;SDS011;5806;48.748;9.278;2023-05-07T14:11:36;3.60;;;1.60;;
11498;SDS011;5806;48.748;9.278;2023-05-07T14:14:04;1.87;;;1.47;;
11498;SDS011;5806;48.748;9.278;2023-05-07T14:16:32;4.70;;;2.03;;
11498;SDS011;5806;48.748;9.278;2023-05-07T14:18:59;4.37;;;2.37;;
11498;SDS011;5806;48.748;9.278;2023-05-07T14:21:26;13.83;;;4.47;;
11498;SDS011;5806;48.748;9.278;2023-05-07T14:23:54;12.80;;;5.13;;
11498;SDS011;5806;48.748;9.278;2023-05-07T14:26:22;7.60;;;4.37;;
11498;SDS011;5806;48.748;9.278;2023-05-07T14:28:49;8.73;;;4.70;;
11498;SDS011;5806;48.748;9.278;2023-05-07T14:31:16;9.33;;;4.57;;
11498;SDS011;5806;48.748;9.278;2023-05-07T14:33:44;11.70;;;5.67;;
11498;SDS011;5806;48.748;9.278;2023-05-07T14:36:11;12.63;;;6.17;;
11498;SDS011;5806;48.748;9.278;2023-05-07T14:38:39;9.80;;;6.20;;
11498;SDS011;5806;48.748;9.278;2023-05-07T14:41:06;11.63;;;5.30;;
11498;SDS011;5806;48.748;9.278;2023-05-07T14:43:33;14.57;;;5.77;;
11498;SDS011;5806;48.748;9.278;2023-05-07T14:46:01;9.03;;;5.27;;
11498;SDS011;5806;48.748;9.278;2023-05-07T14:48:29;6.37;;;5.40;;
11498;SDS011;5806;48.748;9.278;2023-05-07T14:50:56;8.90;;;5.93;;
11498;SDS011;5806;48.748;9.278;2023-05-07T14:53:23;9.87;;;5.57;;
11498;SDS011;5806;48.748;9.278;2023-05-07T14:55:51;9.80;;;4.70;;
11498;SDS011;5806;48.748;9.278;2023-05-07T14:58:18;5.77;;;4.57;;
11498;SDS011;5806;48.748;9.278;2023-05-07T15:00:46;7.93;;;4.27;;
11498;SDS011;5806;48.748;9.278;2023-05-07T15:03:13;5.73;;;3.53;;
11498;SDS011;5806;48.748;9.278;2023-05-07T15:05:41;7.80;;;3.10;;
11498;SDS011;5806;48.748;9.278;2023-05-07T15:08:09;4.57;;;3.00;;
11498;SDS011;5806;48.748;9.278;2023-05-07T15:10:37;4.20;;;3.30;;
11498;SDS011;5806;48.748;9.278;2023-05-07T15:13:08;6.43;;;3.73;;
11498;SDS011;5806;48.748;9.278;2023-05-07T15:15:37;8.37;;;5.10;;
11498;SDS011;5806;48.748;9.278;2023-05-07T15:18:05;6.47;;;4.77;;
11498;SDS011;5806;48.748;9.278;2023-05-07T15:20:33;7.43;;;5.83;;
11498;SDS011;5806;48.748;9.278;2023-05-07T15:23:00;9.13;;;6.00;;
11498;SDS011;5806;48.748;9.278;2023-05-07T15:25:29;8.47;;;6.17;;